createdAt,value
2022-09-13T00:00:44.282Z,3.53
2022-09-13T00:03:12.873Z,3.42
2022-09-13T00:05:40.084Z,3.40
2022-09-13T00:08:08.986Z,3.13
2022-09-13T00:10:37.691Z,3.33
2022-09-13T00:13:06.697Z,3.42
2022-09-13T00:15:33.735Z,3.50
2022-09-13T00:18:00.664Z,3.13
2022-09-13T00:20:27.841Z,3.75
2022-09-13T00:22:54.845Z,3.97
2022-09-13T00:25:21.678Z,3.35
2022-09-13T00:27:48.538Z,3.13
2022-09-13T00:30:15.341Z,3.20
2022-09-13T00:32:42.152Z,3.72
2022-09-13T00:35:09.407Z,3.22
2022-09-13T00:37:36.264Z,2.72
2022-09-13T00:40:03.931Z,3.20
2022-09-13T00:42:32.930Z,3.40
2022-09-13T00:45:01.032Z,3.20
2022-09-13T00:47:34.598Z,3.13
2022-09-13T00:50:11.354Z,3.03
2022-09-13T00:52:42.775Z,3.13
2022-09-13T00:55:35.015Z,3.38
2022-09-13T00:58:08.588Z,3.10
2022-09-13T01:00:36.437Z,3.45
2022-09-13T01:03:08.241Z,3.45
2022-09-13T01:05:46.218Z,2.95
2022-09-13T01:08:20.505Z,3.33
2022-09-13T01:10:49.349Z,3.58
2022-09-13T01:13:21.614Z,3.30
2022-09-13T01:15:48.832Z,3.00
2022-09-13T01:18:16.459Z,3.47
2022-09-13T01:21:20.014Z,2.95
2022-09-13T01:24:09.193Z,3.25
2022-09-13T01:26:48.216Z,3.55
2022-09-13T01:29:53.697Z,3.40
2022-09-13T01:32:33.928Z,3.05
2022-09-13T01:35:17.044Z,3.10
2022-09-13T01:38:37.897Z,2.60
2022-09-13T01:41:24.928Z,3.10
2022-09-13T01:44:08.827Z,2.92
2022-09-13T01:46:47.356Z,2.97
2022-09-13T01:49:43.895Z,2.80
2022-09-13T01:52:10.692Z,2.88
2022-09-13T01:54:44.212Z,2.88
2022-09-13T01:57:17.359Z,2.67
2022-09-13T01:59:52.664Z,2.70
2022-09-13T02:02:36.907Z,2.70
2022-09-13T02:05:16.444Z,2.65
2022-09-13T02:07:53.847Z,3.17
2022-09-13T02:10:31.562Z,2.75
2022-09-13T02:12:59.367Z,2.95
2022-09-13T02:15:37.729Z,2.75
2022-09-13T02:18:19.654Z,2.80
2022-09-13T02:20:50.374Z,2.60
2022-09-13T02:23:40.515Z,2.58
2022-09-13T02:26:09.699Z,2.67
2022-09-13T02:28:42.135Z,2.58
2022-09-13T02:31:10.368Z,2.65
2022-09-13T02:33:44.258Z,2.60
2022-09-13T02:36:18.777Z,2.28
2022-09-13T02:38:56.515Z,2.70
2022-09-13T02:41:46.451Z,2.47
2022-09-13T02:44:42.491Z,2.40
2022-09-13T02:47:26.801Z,2.47
2022-09-13T02:50:09.154Z,3.10
2022-09-13T02:53:02.911Z,2.17
2022-09-13T02:55:35.163Z,2.17
2022-09-13T02:58:14.164Z,2.58
2022-09-13T03:00:41.551Z,2.47
2022-09-13T03:03:12.445Z,2.63
2022-09-13T03:05:40.149Z,2.33
2022-09-13T03:08:10.819Z,2.63
2022-09-13T03:11:07.930Z,2.38
2022-09-13T03:13:37.650Z,2.15
2022-09-13T03:16:16.892Z,2.17
2022-09-13T03:19:20.588Z,3.00
2022-09-13T03:21:59.316Z,2.35
2022-09-13T03:24:51.030Z,2.80
2022-09-13T03:27:24.710Z,3.05
2022-09-13T03:29:57.744Z,2.72
2022-09-13T03:32:50.205Z,3.10
2022-09-13T03:35:41.590Z,2.97
2022-09-13T03:38:31.891Z,2.87
2022-09-13T03:41:13.577Z,3.22
2022-09-13T03:43:49.018Z,2.80
2022-09-13T03:46:30.969Z,4.18
2022-09-13T03:49:03.024Z,3.60
2022-09-13T03:51:30.449Z,3.28
2022-09-13T03:54:02.401Z,3.00
2022-09-13T03:58:56.327Z,3.38
2022-09-13T04:01:24.597Z,4.13
2022-09-13T04:03:56.424Z,3.10
2022-09-13T04:06:23.867Z,3.15
2022-09-13T04:08:50.857Z,3.05
2022-09-13T04:11:17.718Z,3.05
2022-09-13T04:13:44.596Z,3.78
2022-09-13T04:16:12.069Z,3.78
2022-09-13T04:18:38.916Z,3.40
2022-09-13T04:21:06.124Z,4.50
2022-09-13T04:23:33.194Z,4.05
2022-09-13T04:26:04.957Z,3.80
2022-09-13T04:28:31.879Z,4.28
2022-09-13T04:30:58.734Z,3.08
2022-09-13T04:33:25.991Z,3.47
2022-09-13T04:36:00.081Z,4.45
2022-09-13T04:38:27.641Z,3.33
2022-09-13T04:40:57.710Z,3.95
2022-09-13T04:43:24.854Z,4.57
2022-09-13T04:45:51.820Z,4.38
2022-09-13T04:48:18.890Z,10.50
2022-09-13T04:50:46.112Z,9.77
2022-09-13T04:53:13.723Z,7.90
2022-09-13T04:55:40.847Z,11.23
2022-09-13T04:58:07.722Z,12.98
2022-09-13T05:00:35.602Z,8.57
2022-09-13T05:03:02.664Z,14.32
2022-09-13T05:05:31.133Z,7.32
2022-09-13T05:07:58.146Z,4.78
2022-09-13T05:10:25.152Z,6.00
2022-09-13T05:12:52.752Z,4.43
2022-09-13T05:15:19.569Z,4.20
2022-09-13T05:17:46.425Z,4.47
2022-09-13T05:20:13.448Z,3.67
2022-09-13T05:22:40.291Z,3.85
2022-09-13T05:25:07.895Z,3.85
2022-09-13T05:27:34.791Z,4.10
2022-09-13T05:30:01.656Z,3.78
2022-09-13T05:32:28.527Z,3.72
2022-09-13T05:34:55.304Z,3.85
2022-09-13T05:37:22.259Z,5.38
2022-09-13T05:40:10.128Z,5.15
2022-09-13T05:42:35.872Z,5.72
2022-09-13T05:45:02.804Z,5.47
2022-09-13T05:47:29.580Z,4.70
2022-09-13T05:50:09.895Z,4.88
2022-09-13T05:52:37.899Z,6.60
2022-09-13T05:55:05.071Z,5.20
2022-09-13T05:57:31.965Z,4.60
2022-09-13T05:59:58.815Z,4.43
2022-09-13T06:02:25.663Z,5.35
2022-09-13T06:04:52.567Z,5.50
2022-09-13T06:07:19.368Z,4.95
2022-09-13T06:09:46.158Z,3.92
2022-09-13T06:12:12.964Z,3.67
2022-09-13T06:14:40.041Z,3.65
2022-09-13T06:17:07.043Z,3.58
2022-09-13T06:19:33.870Z,3.30
2022-09-13T06:22:00.728Z,4.40
2022-09-13T06:24:27.537Z,6.60
2022-09-13T06:26:54.343Z,5.10
2022-09-13T06:29:21.202Z,4.32
2022-09-13T06:31:48.176Z,4.22
2022-09-13T06:34:16.240Z,4.35
2022-09-13T06:36:43.691Z,4.28
2022-09-13T06:39:10.633Z,5.13
2022-09-13T06:41:37.913Z,4.68
2022-09-13T06:44:05.159Z,4.05
2022-09-13T06:46:34.095Z,4.13
2022-09-13T06:49:06.733Z,4.20
2022-09-13T06:51:34.766Z,4.40
2022-09-13T06:54:03.878Z,3.97
2022-09-13T06:56:33.380Z,4.32
2022-09-13T06:59:04.791Z,4.43
2022-09-13T07:01:40.446Z,4.60
2022-09-13T07:04:19.531Z,5.13
2022-09-13T07:06:48.714Z,6.05
2022-09-13T07:09:21.612Z,5.40
2022-09-13T07:11:50.431Z,4.85
2022-09-13T07:14:25.649Z,5.20
2022-09-13T07:16:52.689Z,4.93
2022-09-13T07:19:26.459Z,4.55
2022-09-13T07:21:54.905Z,4.57
2022-09-13T07:24:22.944Z,59.88
2022-09-13T07:26:50.818Z,6.47
2022-09-13T07:29:19.977Z,6.30
2022-09-13T07:31:49.893Z,5.07
2022-09-13T07:34:20.406Z,5.57
2022-09-13T07:36:48.148Z,5.05
2022-09-13T07:39:20.284Z,4.30
2022-09-13T07:41:49.191Z,4.93
2022-09-13T07:44:16.075Z,4.85
2022-09-13T07:46:45.782Z,5.45
2022-09-13T07:49:14.699Z,5.10
2022-09-13T07:51:43.974Z,4.75
2022-09-13T07:54:16.428Z,5.78
2022-09-13T07:56:43.792Z,5.15
2022-09-13T07:59:16.110Z,5.20
2022-09-13T08:01:45.269Z,5.60
2022-09-13T08:04:14.661Z,5.18
2022-09-13T08:06:43.422Z,5.38
2022-09-13T08:09:11.327Z,5.00
2022-09-13T08:11:46.656Z,5.80
2022-09-13T08:14:20.855Z,4.82
2022-09-13T08:16:48.886Z,4.65
2022-09-13T08:19:18.390Z,4.53
2022-09-13T08:21:48.000Z,4.80
2022-09-13T08:24:23.953Z,4.40
2022-09-13T08:26:52.222Z,4.78
2022-09-13T08:29:19.451Z,126.95
2022-09-13T08:31:46.565Z,77.32
2022-09-13T08:34:15.623Z,5.85
2022-09-13T08:36:43.396Z,4.45
2022-09-13T08:39:13.581Z,4.97
2022-09-13T08:41:42.000Z,4.72
2022-09-13T08:44:34.768Z,4.45
2022-09-13T08:47:35.786Z,4.15
2022-09-13T08:50:05.537Z,4.05
2022-09-13T08:52:51.236Z,4.50
2022-09-13T08:55:24.315Z,4.85
2022-09-13T08:58:18.792Z,4.55
2022-09-13T09:00:51.872Z,5.10
2022-09-13T09:03:39.295Z,4.75
2022-09-13T09:06:13.713Z,5.00
2022-09-13T09:08:53.709Z,4.65
2022-09-13T09:11:31.716Z,5.13
2022-09-13T09:14:03.193Z,4.93
2022-09-13T09:16:49.586Z,5.05
2022-09-13T09:19:25.336Z,4.93
2022-09-13T09:21:52.361Z,5.28
2022-09-13T09:24:25.912Z,4.57
2022-09-13T09:26:58.174Z,4.90
2022-09-13T09:29:28.456Z,7.38
2022-09-13T09:32:22.858Z,6.70
2022-09-13T09:35:11.878Z,6.07
2022-09-13T09:41:39.683Z,6.15
2022-09-13T09:44:34.028Z,9.55
2022-09-13T09:47:29.818Z,5.95
2022-09-13T09:50:09.370Z,5.47
2022-09-13T09:52:56.741Z,5.70
2022-09-13T09:55:50.509Z,5.82
2022-09-13T09:58:19.168Z,6.05
2022-09-13T10:00:55.251Z,5.78
2022-09-13T10:03:29.676Z,5.65
2022-09-13T10:06:08.791Z,5.65
2022-09-13T10:08:38.349Z,5.55
2022-09-13T10:11:06.753Z,5.20
2022-09-13T10:13:34.143Z,10.00
2022-09-13T10:16:31.215Z,5.70
2022-09-13T10:19:24.884Z,6.47
2022-09-13T10:22:12.341Z,6.63
2022-09-13T10:24:40.661Z,6.30
2022-09-13T10:27:42.317Z,6.57
2022-09-13T10:32:58.386Z,13.00
2022-09-13T10:35:25.830Z,16.35
2022-09-13T10:37:52.984Z,5.80
2022-09-13T10:40:27.109Z,6.10
2022-09-13T10:42:59.581Z,6.93
2022-09-13T10:45:29.585Z,5.38
2022-09-13T10:48:05.285Z,5.53
2022-09-13T10:50:33.421Z,5.80
2022-09-13T10:53:02.130Z,5.55
2022-09-13T10:55:40.787Z,6.55
2022-09-13T10:58:07.778Z,5.45
2022-09-13T11:01:17.094Z,6.15
2022-09-13T11:04:11.793Z,6.15
2022-09-13T11:07:02.141Z,5.43
2022-09-13T11:10:02.761Z,6.47
2022-09-13T11:12:43.612Z,7.30
2022-09-13T11:15:18.950Z,6.30
2022-09-13T11:18:12.632Z,5.40
2022-09-13T11:21:22.018Z,6.32
2022-09-13T11:24:31.332Z,6.20
2022-09-13T11:27:23.975Z,6.13
2022-09-13T11:30:10.745Z,7.80
2022-09-13T11:32:59.266Z,8.70
2022-09-13T11:36:01.177Z,6.50
2022-09-13T11:38:51.419Z,5.30
2022-09-13T11:41:46.038Z,8.25
2022-09-13T11:44:48.398Z,9.48
2022-09-13T11:47:33.550Z,6.32
2022-09-13T11:50:03.402Z,5.93
2022-09-13T11:53:00.000Z,7.35
2022-09-13T11:55:32.672Z,5.68
2022-09-13T11:58:04.406Z,4.82
2022-09-13T12:00:44.057Z,4.22
2022-09-13T12:03:22.381Z,4.13
2022-09-13T12:06:05.191Z,5.57
2022-09-13T12:08:45.440Z,5.72
2022-09-13T12:11:19.660Z,4.88
2022-09-13T12:13:52.380Z,4.43
2022-09-13T12:16:45.956Z,4.18
2022-09-13T12:19:22.203Z,5.25
2022-09-13T12:21:50.700Z,4.22
2022-09-13T12:24:20.796Z,3.83
2022-09-13T12:27:03.224Z,4.28
2022-09-13T12:29:49.157Z,4.50
2022-09-13T12:32:17.783Z,3.53
2022-09-13T12:34:58.386Z,3.42
2022-09-13T12:37:43.756Z,4.32
2022-09-13T12:40:20.384Z,3.95
2022-09-13T12:43:08.222Z,4.10
2022-09-13T12:45:54.760Z,4.05
2022-09-13T12:49:00.507Z,4.18
2022-09-13T12:51:48.866Z,4.63
2022-09-13T12:55:06.266Z,4.28
2022-09-13T12:57:57.324Z,4.78
2022-09-13T13:00:30.372Z,4.87
2022-09-13T13:03:15.767Z,6.45
2022-09-13T13:05:54.352Z,4.88
2022-09-13T13:08:21.167Z,4.95
2022-09-13T13:11:05.973Z,5.65
2022-09-13T13:13:43.253Z,5.28
2022-09-13T13:16:30.870Z,5.88
2022-09-13T13:18:59.831Z,5.78
2022-09-13T13:21:30.528Z,6.72
2022-09-13T13:24:15.813Z,7.57
2022-09-13T13:26:42.558Z,6.65
2022-09-13T13:29:16.633Z,6.18
2022-09-13T13:32:07.900Z,6.30
2022-09-13T13:34:43.467Z,5.72
2022-09-13T13:37:10.227Z,5.47
2022-09-13T13:39:48.214Z,5.25
2022-09-13T13:42:27.401Z,5.75
2022-09-13T13:44:54.179Z,6.80
2022-09-13T13:47:20.934Z,7.40
2022-09-13T13:50:10.845Z,6.88
2022-09-13T13:52:55.978Z,6.13
2022-09-13T13:55:31.718Z,5.90
2022-09-13T13:58:05.841Z,6.93
2022-09-13T14:00:35.406Z,6.03
2022-09-13T14:03:02.252Z,7.97
2022-09-13T14:05:50.721Z,7.32
2022-09-13T14:08:37.517Z,8.88
2022-09-13T14:11:29.842Z,6.82
2022-09-13T14:14:27.872Z,6.05
2022-09-13T14:17:32.407Z,10.93
2022-09-13T14:20:12.428Z,7.43
2022-09-13T14:22:39.366Z,6.90
2022-09-13T14:25:23.877Z,7.80
2022-09-13T14:27:56.945Z,6.80
2022-09-13T14:30:29.850Z,7.00
2022-09-13T14:32:58.266Z,6.93
2022-09-13T14:35:37.865Z,8.35
2022-09-13T14:38:22.932Z,8.65
2022-09-13T14:40:51.757Z,9.75
2022-09-13T14:43:27.694Z,8.77
2022-09-13T14:46:03.272Z,8.50
2022-09-13T14:48:51.589Z,8.68
2022-09-13T14:51:22.745Z,9.30
2022-09-13T14:53:54.280Z,8.40
2022-09-13T14:56:36.969Z,7.88
2022-09-13T14:59:08.236Z,8.13
2022-09-13T15:01:36.051Z,7.57
2022-09-13T15:04:05.504Z,8.73
2022-09-13T15:06:38.409Z,8.70
2022-09-13T15:09:11.581Z,8.85
2022-09-13T15:11:55.187Z,7.03
2022-09-13T15:14:24.787Z,7.45
2022-09-13T15:16:54.876Z,7.85
2022-09-13T15:19:24.351Z,8.55
2022-09-13T15:21:51.559Z,8.57
2022-09-13T15:24:34.336Z,8.20
2022-09-13T15:27:05.887Z,8.80
2022-09-13T15:29:34.960Z,8.70
2022-09-13T15:32:06.754Z,8.63
2022-09-13T15:37:06.462Z,8.93
2022-09-13T15:39:51.757Z,8.70
2022-09-13T15:42:18.616Z,10.88
2022-09-13T15:44:45.523Z,9.68
2022-09-13T15:47:17.865Z,10.15
2022-09-13T15:49:50.727Z,10.43
2022-09-13T15:52:20.743Z,14.73
2022-09-13T15:54:49.941Z,10.20
2022-09-13T15:57:24.284Z,12.60
2022-09-13T15:59:52.072Z,11.13
2022-09-13T16:02:28.585Z,9.57
2022-09-13T16:04:56.267Z,10.18
2022-09-13T16:07:24.837Z,10.57
2022-09-13T16:09:53.175Z,12.18
2022-09-13T16:12:23.565Z,11.55
2022-09-13T16:14:50.734Z,10.95
2022-09-13T16:17:21.782Z,21.63
2022-09-13T16:19:48.778Z,26.27
2022-09-13T16:22:16.033Z,16.08
2022-09-13T16:24:42.988Z,14.65
2022-09-13T16:27:14.232Z,13.05
2022-09-13T16:29:41.576Z,11.73
2022-09-13T16:32:08.405Z,10.63
2022-09-13T16:34:35.203Z,11.60
2022-09-13T16:37:02.346Z,12.02
2022-09-13T16:39:29.384Z,14.02
2022-09-13T16:41:56.455Z,13.93
2022-09-13T16:44:23.377Z,14.73
2022-09-13T16:46:50.230Z,16.00
2022-09-13T16:49:17.409Z,13.40
2022-09-13T16:51:44.230Z,14.70
2022-09-13T16:54:11.015Z,17.38
2022-09-13T16:56:39.146Z,29.33
2022-09-13T16:59:06.036Z,18.63
2022-09-13T17:01:33.073Z,20.67
2022-09-13T17:04:00.149Z,22.50
2022-09-13T17:06:27.628Z,22.75
2022-09-13T17:08:57.229Z,20.70
2022-09-13T17:11:26.676Z,23.00
2022-09-13T17:13:54.689Z,20.77
2022-09-13T17:16:28.471Z,21.73
2022-09-13T17:18:57.727Z,20.52
2022-09-13T17:21:26.276Z,18.80
2022-09-13T17:23:54.024Z,23.60
2022-09-13T17:26:21.852Z,21.98
2022-09-13T17:28:48.812Z,21.08
2022-09-13T17:31:15.993Z,22.45
2022-09-13T17:33:42.905Z,21.65
2022-09-13T17:36:11.771Z,22.65
2022-09-13T17:38:39.517Z,21.88
2022-09-13T17:41:09.595Z,20.83
2022-09-13T17:43:37.364Z,20.40
2022-09-13T17:46:08.854Z,25.10
2022-09-13T17:48:35.757Z,21.17
2022-09-13T17:51:04.526Z,24.52
2022-09-13T17:53:32.496Z,22.58
2022-09-13T17:55:59.316Z,21.15
2022-09-13T17:58:27.187Z,27.33
2022-09-13T18:01:02.057Z,41.05
2022-09-13T18:03:30.552Z,28.42
2022-09-13T18:05:59.048Z,25.52
2022-09-13T18:08:27.205Z,22.63
2022-09-13T18:11:12.225Z,22.30
2022-09-13T18:13:41.793Z,20.90
2022-09-13T18:16:20.137Z,19.17
2022-09-13T18:18:48.797Z,19.67
2022-09-13T18:21:19.819Z,19.25
2022-09-13T18:23:48.918Z,19.60
2022-09-13T18:26:19.014Z,17.63
2022-09-13T18:28:48.289Z,18.02
2022-09-13T18:31:17.318Z,28.85
2022-09-13T18:33:45.138Z,25.10
2022-09-13T18:36:17.292Z,22.23
2022-09-13T18:38:46.895Z,24.63
2022-09-13T18:41:15.091Z,21.98
2022-09-13T18:43:43.704Z,22.63
2022-09-13T18:46:16.201Z,23.02
2022-09-13T18:48:45.513Z,21.48
2022-09-13T18:51:15.922Z,22.40
2022-09-13T18:53:43.361Z,26.65
2022-09-13T18:56:12.629Z,21.67
2022-09-13T18:58:40.709Z,23.83
2022-09-13T19:01:28.605Z,23.33
2022-09-13T19:03:58.496Z,22.00
2022-09-13T19:06:29.383Z,19.35
2022-09-13T19:08:57.908Z,20.65
2022-09-13T19:11:45.714Z,20.10
2022-09-13T19:14:23.190Z,22.05
2022-09-13T19:16:51.440Z,19.73
2022-09-13T19:19:18.538Z,136.10
2022-09-13T19:21:46.479Z,111.60
2022-09-13T19:24:20.377Z,20.90
2022-09-13T19:26:51.014Z,20.25
2022-09-13T19:29:20.915Z,22.80
2022-09-13T19:31:49.411Z,22.25
2022-09-13T19:34:18.644Z,19.02
2022-09-13T19:36:45.873Z,18.88
2022-09-13T19:39:13.213Z,19.10
2022-09-13T19:41:41.336Z,19.65
2022-09-13T19:44:09.545Z,20.30
2022-09-13T19:46:39.001Z,20.92
2022-09-13T19:49:08.330Z,20.42
2022-09-13T19:51:37.723Z,22.40
2022-09-13T19:54:06.646Z,18.15
2022-09-13T19:56:39.283Z,20.02
2022-09-13T19:59:08.154Z,20.10
2022-09-13T20:01:40.749Z,18.58
2022-09-13T20:04:13.390Z,20.50
2022-09-13T20:06:42.625Z,17.00
2022-09-13T20:09:10.865Z,16.80
2022-09-13T20:11:42.209Z,15.63
2022-09-13T20:16:39.450Z,19.10
2022-09-13T20:19:29.727Z,17.25
2022-09-13T20:21:55.495Z,19.25
2022-09-13T20:24:22.393Z,15.98
2022-09-13T20:26:52.106Z,17.50
2022-09-13T20:29:19.231Z,19.35
2022-09-13T20:31:46.310Z,68.40
2022-09-13T20:34:17.489Z,55.47
2022-09-13T20:36:45.661Z,51.03
2022-09-13T20:39:14.993Z,17.80
2022-09-13T20:41:43.508Z,18.58
2022-09-13T20:44:11.372Z,20.88
2022-09-13T20:46:40.379Z,19.90
2022-09-13T20:49:09.255Z,31.35
2022-09-13T20:51:37.457Z,27.95
2022-09-13T20:54:05.454Z,20.55
2022-09-13T20:56:34.741Z,23.33
2022-09-13T20:59:02.743Z,30.13
2022-09-13T21:01:31.600Z,32.95
2022-09-13T21:03:59.706Z,34.40
2022-09-13T21:06:29.546Z,30.42
2022-09-13T21:08:59.065Z,30.65
2022-09-13T21:11:30.171Z,31.77
2022-09-13T21:14:00.264Z,32.10
2022-09-13T21:16:30.457Z,30.70
2022-09-13T21:18:58.015Z,29.85
2022-09-13T21:21:30.462Z,27.38
2022-09-13T21:23:58.668Z,26.02
2022-09-13T21:26:27.028Z,19.48
2022-09-13T21:28:55.515Z,16.10
2022-09-13T21:31:25.195Z,10.65
2022-09-13T21:34:06.576Z,10.20
2022-09-13T21:36:37.643Z,11.10
2022-09-13T21:39:05.844Z,10.47
2022-09-13T21:41:33.953Z,8.88
2022-09-13T21:44:01.314Z,8.75
2022-09-13T21:46:30.621Z,7.82
2022-09-13T21:49:01.814Z,7.15
2022-09-13T21:51:28.639Z,6.00
2022-09-13T21:53:59.082Z,7.10
2022-09-13T21:56:28.729Z,7.40
2022-09-13T21:59:00.807Z,7.68
2022-09-13T22:01:39.495Z,8.15
2022-09-13T22:04:07.715Z,6.72
2022-09-13T22:06:37.803Z,6.82
2022-09-13T22:09:08.749Z,6.35
2022-09-13T22:11:40.830Z,6.28
2022-09-13T22:14:09.845Z,6.38
2022-09-13T22:16:38.761Z,6.68
2022-09-13T22:19:09.452Z,6.85
2022-09-13T22:21:38.999Z,7.80
2022-09-13T22:24:07.321Z,6.38
2022-09-13T22:26:37.595Z,6.43
2022-09-13T22:29:05.275Z,7.22
2022-09-13T22:31:35.872Z,5.82
2022-09-13T22:34:03.807Z,5.70
2022-09-13T22:36:31.136Z,5.75
2022-09-13T22:38:58.046Z,5.95
2022-09-13T22:41:27.679Z,5.80
2022-09-13T22:43:55.076Z,6.10
2022-09-13T22:46:24.294Z,5.25
2022-09-13T22:48:52.746Z,5.35
2022-09-13T22:51:20.423Z,6.05
2022-09-13T22:53:48.787Z,5.63
2022-09-13T22:56:37.396Z,5.32
2022-09-13T22:59:10.949Z,5.40
2022-09-13T23:01:38.306Z,5.25
2022-09-13T23:04:06.755Z,5.93
2022-09-13T23:06:34.636Z,6.05
2022-09-13T23:09:03.939Z,5.45
2022-09-13T23:11:33.378Z,5.90
2022-09-13T23:14:09.992Z,6.40
2022-09-13T23:16:43.331Z,6.18
2022-09-13T23:19:13.014Z,6.28
2022-09-13T23:21:40.945Z,5.72
2022-09-13T23:24:11.231Z,6.00
2022-09-13T23:26:38.342Z,6.38
2022-09-13T23:29:05.786Z,6.10
2022-09-13T23:31:35.458Z,5.95
2022-09-13T23:34:05.475Z,7.03
2022-09-13T23:36:37.762Z,7.03
2022-09-13T23:39:06.724Z,6.50
2022-09-13T23:41:34.629Z,7.43
2022-09-13T23:44:02.124Z,6.75
2022-09-13T23:46:29.408Z,6.97
2022-09-13T23:48:56.810Z,7.80
2022-09-13T23:51:26.186Z,6.88
2022-09-13T23:53:58.332Z,6.53
2022-09-13T23:56:26.567Z,6.15
2022-09-13T23:58:55.173Z,6.82
